sensor_id;sensor_type;location;lat;lon;timestamp;pressure;altitude;pressure_sealevel;temperature;humidity
23303;BME280;11820;48.738;9.092;2024-03-25T00:01:59;95540.09;;;4.91;nan
23303;BME280;11820;48.738;9.092;2024-03-25T00:04:25;95535.59;;;4.93;nan
23303;BME280;11820;48.738;9.092;2024-03-25T00:06:50;95538.34;;;4.91;nan
23303;BME280;11820;48.738;9.092;2024-03-25T00:09:16;95539.41;;;4.97;nan
23303;BME280;11820;48.738;9.092;2024-03-25T00:11:42;95546.47;;;4.95;nan
23303;BME280;11820;48.738;9.092;2024-03-25T00:14:08;95547.78;;;4.76;nan
23303;BME280;11820;48.738;9.092;2024-03-25T00:16:34;95546.66;;;4.79;nan
23303;BME280;11820;48.738;9.092;2024-03-25T00:18:59;95542.66;;;4.76;nan
23303;BME280;11820;48.738;9.092;2024-03-25T00:21:25;95540.63;;;4.72;nan
23303;BME280;11820;48.738;9.092;2024-03-25T00:23:50;95539.94;;;4.78;nan
23303;BME280;11820;48.738;9.092;2024-03-25T00:26:16;95539.56;;;4.67;nan
23303;BME280;11820;48.738;9.092;2024-03-25T00:28:41;95534.88;;;4.56;nan
23303;BME280;11820;48.738;9.092;2024-03-25T00:31:06;95545.31;;;4.54;nan
23303;BME280;11820;48.738;9.092;2024-03-25T00:33:31;95537.88;;;4.59;nan
23303;BME280;11820;48.738;9.092;2024-03-25T00:35:58;95539.00;;;4.42;nan
23303;BME280;11820;48.738;9.092;2024-03-25T00:38:23;95544.41;;;4.47;nan
23303;BME280;11820;48.738;9.092;2024-03-25T00:40:49;95539.91;;;4.49;nan
23303;BME280;11820;48.738;9.092;2024-03-25T00:43:15;95543.75;;;4.45;nan
23303;BME280;11820;48.738;9.092;2024-03-25T00:45:40;95538.09;;;4.35;nan
23303;BME280;11820;48.738;9.092;2024-03-25T00:48:07;95532.38;;;4.33;nan
23303;BME280;11820;48.738;9.092;2024-03-25T00:50:32;95533.09;;;4.42;nan
23303;BME280;11820;48.738;9.092;2024-03-25T00:52:57;95536.28;;;4.44;nan
23303;BME280;11820;48.738;9.092;2024-03-25T00:55:23;95541.28;;;4.37;nan
23303;BME280;11820;48.738;9.092;2024-03-25T00:57:48;95533.38;;;4.47;nan
23303;BME280;11820;48.738;9.092;2024-03-25T01:00:13;95536.44;;;4.42;nan
23303;BME280;11820;48.738;9.092;2024-03-25T01:02:40;95530.28;;;4.37;nan
23303;BME280;11820;48.738;9.092;2024-03-25T01:05:06;95532.63;;;4.38;nan
23303;BME280;11820;48.738;9.092;2024-03-25T01:07:31;95527.88;;;4.35;nan
23303;BME280;11820;48.738;9.092;2024-03-25T01:09:57;95523.41;;;4.15;nan
23303;BME280;11820;48.738;9.092;2024-03-25T01:12:23;95519.56;;;4.33;nan
23303;BME280;11820;48.738;9.092;2024-03-25T01:14:48;95516.59;;;4.44;nan
23303;BME280;11820;48.738;9.092;2024-03-25T01:17:14;95514.00;;;4.30;nan
23303;BME280;11820;48.738;9.092;2024-03-25T01:19:39;95514.47;;;4.33;nan
23303;BME280;11820;48.738;9.092;2024-03-25T01:22:04;95508.53;;;4.33;nan
23303;BME280;11820;48.738;9.092;2024-03-25T01:24:30;95503.53;;;4.39;nan
23303;BME280;11820;48.738;9.092;2024-03-25T01:26:55;95503.16;;;4.42;nan
23303;BME280;11820;48.738;9.092;2024-03-25T01:29:21;95499.81;;;4.27;nan
23303;BME280;11820;48.738;9.092;2024-03-25T01:31:47;95502.56;;;4.40;nan
23303;BME280;11820;48.738;9.092;2024-03-25T01:34:12;95499.28;;;4.46;nan
23303;BME280;11820;48.738;9.092;2024-03-25T01:36:37;95489.50;;;4.35;nan
23303;BME280;11820;48.738;9.092;2024-03-25T01:39:04;95499.22;;;4.40;nan
23303;BME280;11820;48.738;9.092;2024-03-25T01:41:30;95501.81;;;4.32;nan
23303;BME280;11820;48.738;9.092;2024-03-25T01:43:56;95503.97;;;4.28;nan
23303;BME280;11820;48.738;9.092;2024-03-25T01:46:21;95504.34;;;4.40;nan
23303;BME280;11820;48.738;9.092;2024-03-25T01:48:47;95514.75;;;4.53;nan
23303;BME280;11820;48.738;9.092;2024-03-25T01:51:15;95505.94;;;4.55;nan
23303;BME280;11820;48.738;9.092;2024-03-25T01:53:42;95508.16;;;4.58;nan
23303;BME280;11820;48.738;9.092;2024-03-25T01:56:08;95504.53;;;4.67;nan
23303;BME280;11820;48.738;9.092;2024-03-25T01:58:34;95501.69;;;4.76;nan
23303;BME280;11820;48.738;9.092;2024-03-25T02:00:59;95498.78;;;4.65;nan
23303;BME280;11820;48.738;9.092;2024-03-25T02:03:26;95508.31;;;4.71;nan
23303;BME280;11820;48.738;9.092;2024-03-25T02:05:55;95503.53;;;4.68;nan
23303;BME280;11820;48.738;9.092;2024-03-25T02:08:22;95508.16;;;4.72;nan
23303;BME280;11820;48.738;9.092;2024-03-25T02:10:48;95505.13;;;4.69;nan
23303;BME280;11820;48.738;9.092;2024-03-25T02:13:15;95505.13;;;4.69;nan
23303;BME280;11820;48.738;9.092;2024-03-25T02:15:41;95499.66;;;4.72;nan
23303;BME280;11820;48.738;9.092;2024-03-25T02:18:06;95513.09;;;4.60;nan
23303;BME280;11820;48.738;9.092;2024-03-25T02:20:32;95497.56;;;4.75;nan
23303;BME280;11820;48.738;9.092;2024-03-25T02:22:57;95510.09;;;4.85;nan
23303;BME280;11820;48.738;9.092;2024-03-25T02:25:23;95500.00;;;4.83;nan
23303;BME280;11820;48.738;9.092;2024-03-25T02:27:49;95497.44;;;4.83;nan
23303;BME280;11820;48.738;9.092;2024-03-25T02:30:14;95501.09;;;4.74;nan
23303;BME280;11820;48.738;9.092;2024-03-25T02:32:40;95504.09;;;4.78;nan
23303;BME280;11820;48.738;9.092;2024-03-25T02:35:08;95504.44;;;4.89;nan
23303;BME280;11820;48.738;9.092;2024-03-25T02:37:35;95494.25;;;4.96;nan
23303;BME280;11820;48.738;9.092;2024-03-25T02:40:01;95503.91;;;4.94;nan
23303;BME280;11820;48.738;9.092;2024-03-25T02:42:30;95500.31;;;4.88;nan
23303;BME280;11820;48.738;9.092;2024-03-25T02:44:56;95498.88;;;4.86;nan
23303;BME280;11820;48.738;9.092;2024-03-25T02:47:22;95496.78;;;4.75;nan
23303;BME280;11820;48.738;9.092;2024-03-25T02:49:47;95501.09;;;4.89;nan
23303;BME280;11820;48.738;9.092;2024-03-25T02:52:13;95502.50;;;4.91;nan
23303;BME280;11820;48.738;9.092;2024-03-25T02:54:38;95499.06;;;4.99;nan
23303;BME280;11820;48.738;9.092;2024-03-25T02:57:03;95500.31;;;4.88;nan
23303;BME280;11820;48.738;9.092;2024-03-25T02:59:29;95493.22;;;4.90;nan
23303;BME280;11820;48.738;9.092;2024-03-25T03:01:54;95483.06;;;4.97;nan
23303;BME280;11820;48.738;9.092;2024-03-25T03:04:19;95494.91;;;4.98;nan
23303;BME280;11820;48.738;9.092;2024-03-25T03:06:44;95497.91;;;4.87;nan
23303;BME280;11820;48.738;9.092;2024-03-25T03:09:10;95485.81;;;4.95;nan
23303;BME280;11820;48.738;9.092;2024-03-25T03:11:35;95490.13;;;4.95;nan
23303;BME280;11820;48.738;9.092;2024-03-25T03:14:00;95486.53;;;4.89;nan
23303;BME280;11820;48.738;9.092;2024-03-25T03:16:26;95489.97;;;4.82;nan
23303;BME280;11820;48.738;9.092;2024-03-25T03:18:51;95489.25;;;4.88;nan
23303;BME280;11820;48.738;9.092;2024-03-25T03:21:17;95486.34;;;4.76;nan
23303;BME280;11820;48.738;9.092;2024-03-25T03:23:42;95490.22;;;4.72;nan
23303;BME280;11820;48.738;9.092;2024-03-25T03:26:07;95491.47;;;4.76;nan
23303;BME280;11820;48.738;9.092;2024-03-25T03:28:32;95484.66;;;4.69;nan
23303;BME280;11820;48.738;9.092;2024-03-25T03:30:58;95484.22;;;4.66;nan
23303;BME280;11820;48.738;9.092;2024-03-25T03:33:23;95488.81;;;4.70;nan
23303;BME280;11820;48.738;9.092;2024-03-25T03:35:49;95488.91;;;4.62;nan
23303;BME280;11820;48.738;9.092;2024-03-25T03:38:14;95483.88;;;4.69;nan
23303;BME280;11820;48.738;9.092;2024-03-25T03:40:40;95486.53;;;4.61;nan
23303;BME280;11820;48.738;9.092;2024-03-25T03:43:05;95489.97;;;4.68;nan
23303;BME280;11820;48.738;9.092;2024-03-25T03:45:33;95488.38;;;4.67;nan
23303;BME280;11820;48.738;9.092;2024-03-25T03:47:58;95485.47;;;4.55;nan
23303;BME280;11820;48.738;9.092;2024-03-25T03:50:24;95489.72;;;4.63;nan
23303;BME280;11820;48.738;9.092;2024-03-25T03:52:49;95489.16;;;4.67;nan
23303;BME280;11820;48.738;9.092;2024-03-25T03:55:14;95492.41;;;4.47;nan
23303;BME280;11820;48.738;9.092;2024-03-25T03:57:39;95503.53;;;4.54;nan
23303;BME280;11820;48.738;9.092;2024-03-25T04:00:05;95502.41;;;4.56;nan
23303;BME280;11820;48.738;9.092;2024-03-25T04:02:31;95513.16;;;4.52;nan
23303;BME280;11820;48.738;9.092;2024-03-25T04:04:56;95511.84;;;4.56;nan
23303;BME280;11820;48.738;9.092;2024-03-25T04:07:21;95508.84;;;4.52;nan
23303;BME280;11820;48.738;9.092;2024-03-25T04:09:52;95508.88;;;4.67;nan
23303;BME280;11820;48.738;9.092;2024-03-25T04:12:18;95504.72;;;4.66;nan
23303;BME280;11820;48.738;9.092;2024-03-25T04:14:46;95503.19;;;4.71;nan
23303;BME280;11820;48.738;9.092;2024-03-25T04:17:11;95496.69;;;4.69;nan
23303;BME280;11820;48.738;9.092;2024-03-25T04:19:37;95507.06;;;4.53;nan
23303;BME280;11820;48.738;9.092;2024-03-25T04:22:02;95499.28;;;4.46;nan
23303;BME280;11820;48.738;9.092;2024-03-25T04:24:28;95498.16;;;4.49;nan
23303;BME280;11820;48.738;9.092;2024-03-25T04:26:53;95494.88;;;4.40;nan
23303;BME280;11820;48.738;9.092;2024-03-25T04:29:19;95493.91;;;4.41;nan
23303;BME280;11820;48.738;9.092;2024-03-25T04:31:44;95496.56;;;4.48;nan
23303;BME280;11820;48.738;9.092;2024-03-25T04:34:10;95498.41;;;4.39;nan
23303;BME280;11820;48.738;9.092;2024-03-25T04:36:36;95499.47;;;4.30;nan
23303;BME280;11820;48.738;9.092;2024-03-25T04:39:01;95500.09;;;4.47;nan
23303;BME280;11820;48.738;9.092;2024-03-25T04:41:27;95500.34;;;4.37;nan
23303;BME280;11820;48.738;9.092;2024-03-25T04:43:52;95493.56;;;4.44;nan
23303;BME280;11820;48.738;9.092;2024-03-25T04:46:17;95492.94;;;4.42;nan
23303;BME280;11820;48.738;9.092;2024-03-25T04:48:43;95504.75;;;4.43;nan
23303;BME280;11820;48.738;9.092;2024-03-25T04:51:11;95500.19;;;4.39;nan
23303;BME280;11820;48.738;9.092;2024-03-25T04:53:36;95499.63;;;4.43;nan
23303;BME280;11820;48.738;9.092;2024-03-25T04:56:01;95501.94;;;4.38;nan
23303;BME280;11820;48.738;9.092;2024-03-25T04:58:27;95496.66;;;4.40;nan
23303;BME280;11820;48.738;9.092;2024-03-25T05:00:52;95498.06;;;4.42;nan
23303;BME280;11820;48.738;9.092;2024-03-25T05:03:17;95496.81;;;4.38;nan
23303;BME280;11820;48.738;9.092;2024-03-25T05:05:43;95504.56;;;4.30;nan
23303;BME280;11820;48.738;9.092;2024-03-25T05:08:09;95504.75;;;4.43;nan
23303;BME280;11820;48.738;9.092;2024-03-25T05:10:34;95502.91;;;4.52;nan
23303;BME280;11820;48.738;9.092;2024-03-25T05:12:59;95505.13;;;4.40;nan
23303;BME280;11820;48.738;9.092;2024-03-25T05:15:24;95510.69;;;4.44;nan
23303;BME280;11820;48.738;9.092;2024-03-25T05:17:50;95515.56;;;4.16;nan
23303;BME280;11820;48.738;9.092;2024-03-25T05:20:15;95507.88;;;4.39;nan
23303;BME280;11820;48.738;9.092;2024-03-25T05:22:41;95511.38;;;4.38;nan
23303;BME280;11820;48.738;9.092;2024-03-25T05:25:06;95503.13;;;4.50;nan
23303;BME280;11820;48.738;9.092;2024-03-25T05:27:32;95510.59;;;4.37;nan
23303;BME280;11820;48.738;9.092;2024-03-25T05:29:57;95511.28;;;4.31;nan
23303;BME280;11820;48.738;9.092;2024-03-25T05:32:23;95507.41;;;4.35;nan
23303;BME280;11820;48.738;9.092;2024-03-25T05:34:48;95509.53;;;4.46;nan
23303;BME280;11820;48.738;9.092;2024-03-25T05:37:14;95507.50;;;4.42;nan
23303;BME280;11820;48.738;9.092;2024-03-25T05:39:39;95515.06;;;4.35;nan
23303;BME280;11820;48.738;9.092;2024-03-25T05:42:04;95500.81;;;4.41;nan
23303;BME280;11820;48.738;9.092;2024-03-25T05:44:30;95508.09;;;4.29;nan
23303;BME280;11820;48.738;9.092;2024-03-25T05:46:55;95515.69;;;4.37;nan
23303;BME280;11820;48.738;9.092;2024-03-25T05:49:20;95519.09;;;4.52;nan
23303;BME280;11820;48.738;9.092;2024-03-25T05:51:46;95519.09;;;4.52;nan
23303;BME280;11820;48.738;9.092;2024-03-25T05:54:11;95513.97;;;4.52;nan
23303;BME280;11820;48.738;9.092;2024-03-25T05:56:36;95511.22;;;4.54;nan
23303;BME280;11820;48.738;9.092;2024-03-25T05:59:02;95520.06;;;4.66;nan
23303;BME280;11820;48.738;9.092;2024-03-25T06:01:27;95522.78;;;4.50;nan
23303;BME280;11820;48.738;9.092;2024-03-25T06:03:53;95517.06;;;4.62;nan
23303;BME280;11820;48.738;9.092;2024-03-25T06:06:18;95518.28;;;4.52;nan
23303;BME280;11820;48.738;9.092;2024-03-25T06:08:44;95516.88;;;4.49;nan
23303;BME280;11820;48.738;9.092;2024-03-25T06:11:09;95509.72;;;4.59;nan
23303;BME280;11820;48.738;9.092;2024-03-25T06:13:35;95512.13;;;4.75;nan
23303;BME280;11820;48.738;9.092;2024-03-25T06:16:00;95512.47;;;4.72;nan
23303;BME280;11820;48.738;9.092;2024-03-25T06:18:25;95508.97;;;4.73;nan
23303;BME280;11820;48.738;9.092;2024-03-25T06:20:51;95517.88;;;4.77;nan
23303;BME280;11820;48.738;9.092;2024-03-25T06:23:27;95517.50;;;4.51;nan
23303;BME280;11820;48.738;9.092;2024-03-25T06:25:53;95521.47;;;4.68;nan
23303;BME280;11820;48.738;9.092;2024-03-25T06:28:19;95521.31;;;4.70;nan
23303;BME280;11820;48.738;9.092;2024-03-25T06:30:49;95516.44;;;4.60;nan
23303;BME280;11820;48.738;9.092;2024-03-25T06:33:33;95520.06;;;4.51;nan
23303;BME280;11820;48.738;9.092;2024-03-25T06:36:19;95516.53;;;4.67;nan
23303;BME280;11820;48.738;9.092;2024-03-25T06:38:44;95520.13;;;4.72;nan
23303;BME280;11820;48.738;9.092;2024-03-25T06:41:10;95522.38;;;4.75;nan
23303;BME280;11820;48.738;9.092;2024-03-25T06:43:36;95529.84;;;4.62;nan
23303;BME280;11820;48.738;9.092;2024-03-25T06:46:03;95520.13;;;4.72;nan
23303;BME280;11820;48.738;9.092;2024-03-25T06:48:28;95528.63;;;4.72;nan
23303;BME280;11820;48.738;9.092;2024-03-25T06:50:57;95523.97;;;4.76;nan
23303;BME280;11820;48.738;9.092;2024-03-25T06:53:23;95533.50;;;4.68;nan
23303;BME280;11820;48.738;9.092;2024-03-25T06:55:59;95539.38;;;4.68;nan
23303;BME280;11820;48.738;9.092;2024-03-25T06:58:25;95527.84;;;4.86;nan
23303;BME280;11820;48.738;9.092;2024-03-25T07:00:53;95536.94;;;4.74;nan
23303;BME280;11820;48.738;9.092;2024-03-25T07:03:20;95543.13;;;4.80;nan
23303;BME280;11820;48.738;9.092;2024-03-25T07:05:46;95540.31;;;5.04;nan
23303;BME280;11820;48.738;9.092;2024-03-25T07:08:12;95537.63;;;5.12;nan
23303;BME280;11820;48.738;9.092;2024-03-25T07:10:38;95546.13;;;5.12;nan
23303;BME280;11820;48.738;9.092;2024-03-25T07:13:03;95535.19;;;5.04;nan
23303;BME280;11820;48.738;9.092;2024-03-25T07:15:30;95545.03;;;5.36;nan
23303;BME280;11820;48.738;9.092;2024-03-25T07:17:56;95529.13;;;5.40;nan
23303;BME280;11820;48.738;9.092;2024-03-25T07:20:21;95530.16;;;5.46;nan
23303;BME280;11820;48.738;9.092;2024-03-25T07:22:47;95537.03;;;5.60;nan
23303;BME280;11820;48.738;9.092;2024-03-25T07:25:13;95531.81;;;5.53;nan
23303;BME280;11820;48.738;9.092;2024-03-25T07:27:38;95523.59;;;5.58;nan
23303;BME280;11820;48.738;9.092;2024-03-25T07:30:04;95529.34;;;5.60;nan
23303;BME280;11820;48.738;9.092;2024-03-25T07:32:31;95520.91;;;5.66;nan
23303;BME280;11820;48.738;9.092;2024-03-25T07:34:57;95524.16;;;5.74;nan
23303;BME280;11820;48.738;9.092;2024-03-25T07:37:22;95517.81;;;5.70;nan
23303;BME280;11820;48.738;9.092;2024-03-25T07:39:47;95522.94;;;5.85;nan
23303;BME280;11820;48.738;9.092;2024-03-25T07:42:13;95519.66;;;5.76;nan
23303;BME280;11820;48.738;9.092;2024-03-25T07:44:39;95523.66;;;5.79;nan
23303;BME280;11820;48.738;9.092;2024-03-25T07:47:04;95518.56;;;5.85;nan
23303;BME280;11820;48.738;9.092;2024-03-25T07:49:31;95520.13;;;6.01;nan
23303;BME280;11820;48.738;9.092;2024-03-25T07:51:59;95525.66;;;6.04;nan
23303;BME280;11820;48.738;9.092;2024-03-25T07:54:24;95517.59;;;6.07;nan
23303;BME280;11820;48.738;9.092;2024-03-25T07:56:49;95518.56;;;6.06;nan
23303;BME280;11820;48.738;9.092;2024-03-25T07:59:15;95526.41;;;6.19;nan
23303;BME280;11820;48.738;9.092;2024-03-25T08:01:40;95514.03;;;6.29;nan
23303;BME280;11820;48.738;9.092;2024-03-25T08:04:05;95525.13;;;6.30;nan
23303;BME280;11820;48.738;9.092;2024-03-25T08:06:31;95521.81;;;6.36;nan
23303;BME280;11820;48.738;9.092;2024-03-25T08:08:56;95521.88;;;6.48;nan
23303;BME280;11820;48.738;9.092;2024-03-25T08:11:21;95521.56;;;6.58;nan
23303;BME280;11820;48.738;9.092;2024-03-25T08:13:48;95514.38;;;6.74;nan
23303;BME280;11820;48.738;9.092;2024-03-25T08:16:13;95512.91;;;6.93;nan
23303;BME280;11820;48.738;9.092;2024-03-25T08:18:39;95509.91;;;6.89;nan
23303;BME280;11820;48.738;9.092;2024-03-25T08:21:04;95513.66;;;6.87;nan
23303;BME280;11820;48.738;9.092;2024-03-25T08:23:29;95508.88;;;6.77;nan
23303;BME280;11820;48.738;9.092;2024-03-25T08:25:54;95502.75;;;6.85;nan
23303;BME280;11820;48.738;9.092;2024-03-25T08:28:20;95507.28;;;6.76;nan
23303;BME280;11820;48.738;9.092;2024-03-25T08:30:45;95509.84;;;7.10;nan
23303;BME280;11820;48.738;9.092;2024-03-25T08:33:10;95505.59;;;7.30;nan
23303;BME280;11820;48.738;9.092;2024-03-25T08:35:35;95504.41;;;7.39;nan
23303;BME280;11820;48.738;9.092;2024-03-25T08:38:03;95505.81;;;7.42;nan
23303;BME280;11820;48.738;9.092;2024-03-25T08:40:28;95497.47;;;7.40;nan
23303;BME280;11820;48.738;9.092;2024-03-25T08:42:54;95495.19;;;7.64;nan
23303;BME280;11820;48.738;9.092;2024-03-25T08:45:19;95488.69;;;7.68;nan
23303;BME280;11820;48.738;9.092;2024-03-25T08:47:44;95486.69;;;7.57;nan
23303;BME280;11820;48.738;9.092;2024-03-25T08:50:09;95483.56;;;7.81;nan
23303;BME280;11820;48.738;9.092;2024-03-25T08:52:35;95489.50;;;7.88;nan
23303;BME280;11820;48.738;9.092;2024-03-25T08:55:00;95483.50;;;7.62;nan
23303;BME280;11820;48.738;9.092;2024-03-25T08:57:26;95473.69;;;7.91;nan
23303;BME280;11820;48.738;9.092;2024-03-25T08:59:51;95461.19;;;8.01;nan
23303;BME280;11820;48.738;9.092;2024-03-25T09:02:16;95469.72;;;7.82;nan
23303;BME280;11820;48.738;9.092;2024-03-25T09:04:42;95456.66;;;8.09;nan
23303;BME280;11820;48.738;9.092;2024-03-25T09:07:07;95458.88;;;8.32;nan
23303;BME280;11820;48.738;9.092;2024-03-25T09:09:33;95457.28;;;8.31;nan
23303;BME280;11820;48.738;9.092;2024-03-25T09:12:17;95460.44;;;8.00;nan
23303;BME280;11820;48.738;9.092;2024-03-25T09:14:42;95466.13;;;7.90;nan
23303;BME280;11820;48.738;9.092;2024-03-25T09:17:07;95462.78;;;8.02;nan
23303;BME280;11820;48.738;9.092;2024-03-25T09:19:33;95462.41;;;7.79;nan
23303;BME280;11820;48.738;9.092;2024-03-25T09:21:58;95462.78;;;8.02;nan
23303;BME280;11820;48.738;9.092;2024-03-25T09:24:23;95458.25;;;8.04;nan
23303;BME280;11820;48.738;9.092;2024-03-25T09:26:52;95458.41;;;7.90;nan
23303;BME280;11820;48.738;9.092;2024-03-25T09:29:17;95457.44;;;7.78;nan
23303;BME280;11820;48.738;9.092;2024-03-25T09:31:42;95449.34;;;7.94;nan
23303;BME280;11820;48.738;9.092;2024-03-25T09:34:08;95449.91;;;8.08;nan
23303;BME280;11820;48.738;9.092;2024-03-25T09:36:33;95445.97;;;8.06;nan
23303;BME280;11820;48.738;9.092;2024-03-25T09:38:58;95445.81;;;8.20;nan
23303;BME280;11820;48.738;9.092;2024-03-25T09:41:23;95445.97;;;8.38;nan
23303;BME280;11820;48.738;9.092;2024-03-25T09:43:54;95441.00;;;8.50;nan
23303;BME280;11820;48.738;9.092;2024-03-25T09:46:20;95439.41;;;8.62;nan
23303;BME280;11820;48.738;9.092;2024-03-25T09:48:46;95436.00;;;8.81;nan
23303;BME280;11820;48.738;9.092;2024-03-25T09:51:11;95428.78;;;9.09;nan
23303;BME280;11820;48.738;9.092;2024-03-25T09:53:37;95420.66;;;9.43;nan
23303;BME280;11820;48.738;9.092;2024-03-25T09:56:02;95415.75;;;9.65;nan
23303;BME280;11820;48.738;9.092;2024-03-25T09:58:28;95403.69;;;9.90;nan
23303;BME280;11820;48.738;9.092;2024-03-25T10:00:55;95405.25;;;9.91;nan
23303;BME280;11820;48.738;9.092;2024-03-25T10:03:21;95402.69;;;9.61;nan
23303;BME280;11820;48.738;9.092;2024-03-25T10:05:47;95400.72;;;9.87;nan
23303;BME280;11820;48.738;9.092;2024-03-25T10:08:12;95397.44;;;9.73;nan
23303;BME280;11820;48.738;9.092;2024-03-25T10:10:37;95397.31;;;9.62;nan
23303;BME280;11820;48.738;9.092;2024-03-25T10:13:06;95389.19;;;9.89;nan
23303;BME280;11820;48.738;9.092;2024-03-25T10:15:32;95381.75;;;9.99;nan
23303;BME280;11820;48.738;9.092;2024-03-25T10:17:58;95377.16;;;9.77;nan
23303;BME280;11820;48.738;9.092;2024-03-25T10:20:23;95371.16;;;9.59;nan
23303;BME280;11820;48.738;9.092;2024-03-25T10:22:50;95370.06;;;9.42;nan
23303;BME280;11820;48.738;9.092;2024-03-25T10:25:28;95357.47;;;9.52;nan
23303;BME280;11820;48.738;9.092;2024-03-25T10:28:01;95355.91;;;10.06;nan
23303;BME280;11820;48.738;9.092;2024-03-25T10:30:27;95352.56;;;10.23;nan
23303;BME280;11820;48.738;9.092;2024-03-25T10:33:04;95350.72;;;10.66;nan
23303;BME280;11820;48.738;9.092;2024-03-25T10:35:31;95345.81;;;10.76;nan
23303;BME280;11820;48.738;9.092;2024-03-25T10:38:07;95345.34;;;11.15;nan
23303;BME280;11820;48.738;9.092;2024-03-25T10:40:37;95347.25;;;10.90;nan
23303;BME280;11820;48.738;9.092;2024-03-25T10:43:07;95338.31;;;11.86;nan
23303;BME280;11820;48.738;9.092;2024-03-25T10:45:47;95318.69;;;18.25;nan
23303;BME280;11820;48.738;9.092;2024-03-25T10:48:31;95325.31;;;17.06;nan
23303;BME280;11820;48.738;9.092;2024-03-25T10:51:00;95334.59;;;14.18;nan
23303;BME280;11820;48.738;9.092;2024-03-25T10:53:27;95337.34;;;13.51;nan
23303;BME280;11820;48.738;9.092;2024-03-25T10:55:54;95330.28;;;14.45;nan
23303;BME280;11820;48.738;9.092;2024-03-25T10:58:21;95334.69;;;12.67;nan
23303;BME280;11820;48.738;9.092;2024-03-25T11:00:48;95323.44;;;12.50;nan
23303;BME280;11820;48.738;9.092;2024-03-25T11:03:13;95328.09;;;12.37;nan
23303;BME280;11820;48.738;9.092;2024-03-25T11:05:39;95321.91;;;11.80;nan
23303;BME280;11820;48.738;9.092;2024-03-25T11:08:15;95327.38;;;11.61;nan
23303;BME280;11820;48.738;9.092;2024-03-25T11:10:41;95323.34;;;11.06;nan
23303;BME280;11820;48.738;9.092;2024-03-25T11:13:11;95314.22;;;11.33;nan
23303;BME280;11820;48.738;9.092;2024-03-25T11:15:40;95309.38;;;11.66;nan
23303;BME280;11820;48.738;9.092;2024-03-25T11:18:11;95290.63;;;15.82;nan
23303;BME280;11820;48.738;9.092;2024-03-25T11:20:37;95298.38;;;13.34;nan
23303;BME280;11820;48.738;9.092;2024-03-25T11:23:11;95302.03;;;12.43;nan
23303;BME280;11820;48.738;9.092;2024-03-25T11:25:37;95285.09;;;13.31;nan
23303;BME280;11820;48.738;9.092;2024-03-25T11:28:03;95277.13;;;14.03;nan
23303;BME280;11820;48.738;9.092;2024-03-25T11:30:29;95281.88;;;13.40;nan
23303;BME280;11820;48.738;9.092;2024-03-25T11:32:57;95275.41;;;12.98;nan
23303;BME280;11820;48.738;9.092;2024-03-25T11:35:23;95263.63;;;13.07;nan
23303;BME280;11820;48.738;9.092;2024-03-25T11:37:49;95265.69;;;13.05;nan
23303;BME280;11820;48.738;9.092;2024-03-25T11:40:18;95277.50;;;11.65;nan
23303;BME280;11820;48.738;9.092;2024-03-25T11:42:45;95265.97;;;11.38;nan
23303;BME280;11820;48.738;9.092;2024-03-25T11:45:15;95258.09;;;11.33;nan
23303;BME280;11820;48.738;9.092;2024-03-25T11:47:45;95252.53;;;10.78;nan
23303;BME280;11820;48.738;9.092;2024-03-25T11:50:15;95254.00;;;10.56;nan
23303;BME280;11820;48.738;9.092;2024-03-25T11:52:41;95251.25;;;10.69;nan
23303;BME280;11820;48.738;9.092;2024-03-25T11:55:08;95226.88;;;15.05;nan
23303;BME280;11820;48.738;9.092;2024-03-25T11:57:34;95194.06;;;24.23;nan
23303;BME280;11820;48.738;9.092;2024-03-25T12:00:00;95188.13;;;28.03;nan
23303;BME280;11820;48.738;9.092;2024-03-25T12:02:26;95191.16;;;27.81;nan
23303;BME280;11820;48.738;9.092;2024-03-25T12:04:51;95189.16;;;29.42;nan
23303;BME280;11820;48.738;9.092;2024-03-25T12:07:17;95196.63;;;24.75;nan
23303;BME280;11820;48.738;9.092;2024-03-25T12:09:42;95196.59;;;23.53;nan
23303;BME280;11820;48.738;9.092;2024-03-25T12:12:27;95216.50;;;16.70;nan
23303;BME280;11820;48.738;9.092;2024-03-25T12:14:53;95200.06;;;20.03;nan
23303;BME280;11820;48.738;9.092;2024-03-25T12:17:19;95163.84;;;30.03;nan
23303;BME280;11820;48.738;9.092;2024-03-25T12:20:07;95161.50;;;32.94;nan
23303;BME280;11820;48.738;9.092;2024-03-25T12:22:39;95152.88;;;31.92;nan
23303;BME280;11820;48.738;9.092;2024-03-25T12:25:08;95149.28;;;31.46;nan
23303;BME280;11820;48.738;9.092;2024-03-25T12:27:35;95137.25;;;33.72;nan
23303;BME280;11820;48.738;9.092;2024-03-25T12:30:03;95123.16;;;33.45;nan
23303;BME280;11820;48.738;9.092;2024-03-25T12:32:36;95133.00;;;34.03;nan
23303;BME280;11820;48.738;9.092;2024-03-25T12:35:02;95122.22;;;34.36;nan
23303;BME280;11820;48.738;9.092;2024-03-25T12:37:30;95132.84;;;27.64;nan
23303;BME280;11820;48.738;9.092;2024-03-25T12:39:56;95117.44;;;30.69;nan
23303;BME280;11820;48.738;9.092;2024-03-25T12:42:23;95119.41;;;33.24;nan
23303;BME280;11820;48.738;9.092;2024-03-25T12:44:49;95102.72;;;30.59;nan
23303;BME280;11820;48.738;9.092;2024-03-25T12:47:14;95097.31;;;35.00;nan
23303;BME280;11820;48.738;9.092;2024-03-25T12:49:39;95083.47;;;35.94;nan
23303;BME280;11820;48.738;9.092;2024-03-25T12:52:05;95092.53;;;35.37;nan
23303;BME280;11820;48.738;9.092;2024-03-25T12:54:32;95086.44;;;34.79;nan
23303;BME280;11820;48.738;9.092;2024-03-25T12:56:57;95081.91;;;33.96;nan
23303;BME280;11820;48.738;9.092;2024-03-25T12:59:23;95085.22;;;32.62;nan
23303;BME280;11820;48.738;9.092;2024-03-25T13:01:48;95091.13;;;33.00;nan
23303;BME280;11820;48.738;9.092;2024-03-25T13:04:13;95077.34;;;33.64;nan
23303;BME280;11820;48.738;9.092;2024-03-25T13:06:39;95075.72;;;34.83;nan
23303;BME280;11820;48.738;9.092;2024-03-25T13:09:04;95074.03;;;35.32;nan
23303;BME280;11820;48.738;9.092;2024-03-25T13:11:29;95058.50;;;36.46;nan
23303;BME280;11820;48.738;9.092;2024-03-25T13:13:55;95054.91;;;35.58;nan
23303;BME280;11820;48.738;9.092;2024-03-25T13:16:20;95059.59;;;36.87;nan
23303;BME280;11820;48.738;9.092;2024-03-25T13:18:46;95061.06;;;33.47;nan
23303;BME280;11820;48.738;9.092;2024-03-25T13:21:14;95069.56;;;31.14;nan
23303;BME280;11820;48.738;9.092;2024-03-25T13:23:39;95063.59;;;28.52;nan
23303;BME280;11820;48.738;9.092;2024-03-25T13:26:05;95072.75;;;22.78;nan